createdAt,value
2019-02-27T00:01:23.053Z,99.90
2019-02-27T00:03:53.485Z,99.90
2019-02-27T00:06:23.876Z,99.90
2019-02-27T00:08:54.243Z,99.90
2019-02-27T00:11:24.635Z,99.90
2019-02-27T00:13:57.991Z,99.90
2019-02-27T00:16:28.070Z,99.90
2019-02-27T00:18:59.326Z,99.90
2019-02-27T00:21:29.808Z,99.90
2019-02-27T00:24:00.172Z,99.90
2019-02-27T00:26:31.630Z,99.90
2019-02-27T00:29:01.994Z,99.90
2019-02-27T00:31:34.144Z,99.90
2019-02-27T00:34:04.505Z,99.90
2019-02-27T00:36:34.899Z,99.90
2019-02-27T00:39:07.100Z,99.90
2019-02-27T00:41:37.861Z,99.90
2019-02-27T00:44:08.232Z,99.90
2019-02-27T00:46:38.622Z,99.90
2019-02-27T00:49:08.988Z,99.90
2019-02-27T00:51:44.670Z,99.90
2019-02-27T00:54:13.067Z,99.90
2019-02-27T00:56:45.020Z,99.90
2019-02-27T00:59:15.517Z,99.90
2019-02-27T01:01:47.434Z,99.90
2019-02-27T01:04:17.967Z,99.90
2019-02-27T01:06:48.364Z,99.90
2019-02-27T01:09:19.694Z,99.90
2019-02-27T01:11:51.835Z,99.90
2019-02-27T01:14:22.157Z,99.90
2019-02-27T01:16:52.538Z,99.90
2019-02-27T01:19:22.903Z,99.90
2019-02-27T01:21:53.293Z,99.90
2019-02-27T01:24:23.656Z,99.90
2019-02-27T01:26:54.041Z,99.90
2019-02-27T01:29:24.424Z,99.90
2019-02-27T01:31:55.008Z,99.90
2019-02-27T01:34:26.854Z,99.90
2019-02-27T01:36:57.985Z,99.90
2019-02-27T01:39:28.893Z,99.90
2019-02-27T01:41:59.276Z,99.90
2019-02-27T01:44:30.709Z,99.90
2019-02-27T01:47:02.295Z,99.90
2019-02-27T01:49:33.334Z,99.90
2019-02-27T01:52:03.721Z,99.90
2019-02-27T01:54:34.082Z,99.90
2019-02-27T01:57:04.468Z,99.90
2019-02-27T01:59:34.823Z,99.90
2019-02-27T02:02:05.200Z,99.90
2019-02-27T02:04:36.638Z,99.90
2019-02-27T02:07:07.380Z,99.90
2019-02-27T02:09:38.511Z,99.90
2019-02-27T02:12:19.078Z,99.90
2019-02-27T02:15:02.426Z,99.90
2019-02-27T02:18:11.873Z,99.90
2019-02-27T02:21:04.806Z,99.90
2019-02-27T02:23:56.832Z,99.90
2019-02-27T02:26:43.507Z,99.90
2019-02-27T02:29:39.298Z,99.90
2019-02-27T02:32:29.518Z,99.90
2019-02-27T02:35:07.146Z,99.90
2019-02-27T02:38:14.507Z,99.90
2019-02-27T02:40:49.481Z,99.90
2019-02-27T02:43:24.489Z,99.90
2019-02-27T02:46:09.802Z,99.90
2019-02-27T02:49:08.041Z,99.90
2019-02-27T02:52:14.392Z,99.90
2019-02-27T02:54:58.007Z,99.90
2019-02-27T02:57:50.573Z,99.90
2019-02-27T03:00:39.086Z,99.90
2019-02-27T03:03:21.884Z,99.90
2019-02-27T03:06:16.565Z,99.90
2019-02-27T03:09:10.953Z,99.90
2019-02-27T03:12:29.697Z,99.90
2019-02-27T03:15:19.034Z,99.90
2019-02-27T03:18:32.841Z,99.90
2019-02-27T03:21:27.299Z,99.90
2019-02-27T03:24:08.446Z,99.90
2019-02-27T03:26:44.494Z,99.90
2019-02-27T03:29:34.432Z,99.90
2019-02-27T03:35:28.361Z,99.90
2019-02-27T03:38:24.908Z,99.90
2019-02-27T03:41:08.638Z,99.90
2019-02-27T03:44:07.502Z,99.90
2019-02-27T03:46:45.146Z,99.90
2019-02-27T03:49:39.751Z,99.90
2019-02-27T03:52:48.710Z,99.90
2019-02-27T03:56:13.749Z,99.90
2019-02-27T03:58:51.650Z,99.90
2019-02-27T04:01:38.012Z,99.90
2019-02-27T04:04:30.569Z,99.90
2019-02-27T04:07:36.028Z,99.90
2019-02-27T04:10:06.826Z,99.90
2019-02-27T04:12:37.178Z,99.90
2019-02-27T04:15:09.701Z,99.90
2019-02-27T04:17:38.438Z,99.90
2019-02-27T04:20:28.154Z,99.90
2019-02-27T04:22:58.518Z,99.90
2019-02-27T04:25:31.424Z,99.90
2019-02-27T04:28:00.965Z,99.90
2019-02-27T04:30:31.347Z,99.90
2019-02-27T04:33:01.710Z,99.90
2019-02-27T04:35:34.201Z,99.90
2019-02-27T04:38:04.154Z,99.90
2019-02-27T04:40:34.536Z,99.90
2019-02-27T04:43:04.898Z,99.90
2019-02-27T04:45:35.290Z,99.90
2019-02-27T04:48:05.677Z,99.90
2019-02-27T04:50:36.027Z,99.90
2019-02-27T04:53:06.423Z,99.90
2019-02-27T04:55:36.771Z,99.90
2019-02-27T04:58:09.082Z,99.90
2019-02-27T05:00:39.253Z,99.90
2019-02-27T05:03:09.663Z,99.90
2019-02-27T05:05:41.378Z,99.90
2019-02-27T05:08:12.187Z,99.90
2019-02-27T05:10:42.594Z,99.90
2019-02-27T05:13:13.004Z,99.90
2019-02-27T05:15:43.471Z,99.90
2019-02-27T05:18:13.882Z,99.90
2019-02-27T05:20:45.678Z,99.90
2019-02-27T05:23:16.198Z,99.90
2019-02-27T05:25:46.555Z,99.90
2019-02-27T05:28:16.941Z,99.90
2019-02-27T05:30:47.310Z,99.90
2019-02-27T05:33:17.694Z,99.90
2019-02-27T05:35:48.057Z,99.90
2019-02-27T05:38:18.452Z,99.90
2019-02-27T05:40:48.804Z,99.90
2019-02-27T05:43:19.184Z,99.90
2019-02-27T05:45:49.552Z,99.90
2019-02-27T05:48:20.208Z,99.90
2019-02-27T05:50:51.009Z,99.90
2019-02-27T05:53:22.292Z,99.90
2019-02-27T05:55:53.224Z,99.90
2019-02-27T05:58:23.634Z,99.90
2019-02-27T06:00:53.977Z,99.90
2019-02-27T06:03:24.360Z,99.90
2019-02-27T06:05:54.749Z,99.90
2019-02-27T06:08:25.133Z,99.90
2019-02-27T06:10:56.207Z,99.90
2019-02-27T06:13:26.772Z,99.90
2019-02-27T06:15:57.129Z,99.90
2019-02-27T06:18:27.507Z,99.90
2019-02-27T06:20:57.874Z,99.90
2019-02-27T06:23:28.257Z,99.90
2019-02-27T06:25:59.375Z,99.90
2019-02-27T06:28:30.594Z,99.90
2019-02-27T06:31:02.525Z,99.90
2019-02-27T06:33:33.029Z,99.90
2019-02-27T06:36:05.414Z,99.90
2019-02-27T06:38:35.468Z,99.90
2019-02-27T06:41:05.836Z,99.90
2019-02-27T06:43:36.223Z,99.90
2019-02-27T06:46:06.592Z,99.90
2019-02-27T06:48:36.972Z,99.90
2019-02-27T06:51:07.336Z,99.90
2019-02-27T06:53:37.720Z,99.90
2019-02-27T06:56:08.152Z,99.90
2019-02-27T06:58:38.531Z,99.90
2019-02-27T07:01:09.691Z,99.90
2019-02-27T07:03:51.561Z,99.90
2019-02-27T07:06:22.258Z,99.90
2019-02-27T07:08:52.693Z,99.90
2019-02-27T07:11:23.053Z,99.90
2019-02-27T07:13:53.431Z,99.90
2019-02-27T07:16:23.824Z,99.90
2019-02-27T07:18:54.183Z,99.90
2019-02-27T07:21:24.611Z,99.90
2019-02-27T07:23:58.591Z,99.90
2019-02-27T07:26:27.208Z,99.90
2019-02-27T07:28:57.587Z,99.90
2019-02-27T07:31:27.948Z,99.90
2019-02-27T07:33:58.328Z,99.90
2019-02-27T07:36:28.742Z,99.90
2019-02-27T07:38:59.122Z,99.90
2019-02-27T07:41:29.484Z,99.90
2019-02-27T07:43:59.859Z,99.90
2019-02-27T07:46:30.215Z,99.90
2019-02-27T07:49:01.550Z,99.90
2019-02-27T07:51:31.921Z,99.90
2019-02-27T07:54:03.922Z,99.90
2019-02-27T07:56:34.447Z,99.90
2019-02-27T07:59:04.836Z,99.90
2019-02-27T08:01:43.539Z,99.90
2019-02-27T08:04:07.307Z,99.90
2019-02-27T08:06:38.483Z,99.90
2019-02-27T08:09:09.302Z,99.90
2019-02-27T08:11:40.033Z,99.90
2019-02-27T08:14:10.421Z,99.90
2019-02-27T08:16:41.048Z,99.90
2019-02-27T08:19:12.283Z,99.90
2019-02-27T08:21:42.813Z,99.90
2019-02-27T08:24:14.360Z,99.90
2019-02-27T08:26:44.912Z,99.90
2019-02-27T08:29:28.000Z,99.90
2019-02-27T08:32:00.759Z,99.90
2019-02-27T08:34:30.450Z,99.90
2019-02-27T08:37:00.813Z,99.90
2019-02-27T08:39:31.301Z,99.90
2019-02-27T08:42:03.594Z,99.90
2019-02-27T08:44:33.751Z,99.90
2019-02-27T08:47:04.374Z,99.00
2019-02-27T08:49:34.791Z,75.80
2019-02-27T08:52:05.162Z,60.80
2019-02-27T08:54:35.553Z,47.20
2019-02-27T08:57:06.991Z,45.00
2019-02-27T08:59:39.823Z,39.40
2019-02-27T09:02:10.287Z,38.90
2019-02-27T09:04:42.853Z,36.40
2019-02-27T09:07:12.745Z,33.60
2019-02-27T09:09:43.132Z,31.30
2019-02-27T09:12:14.070Z,31.20
2019-02-27T09:14:44.474Z,29.50
2019-02-27T09:17:14.837Z,30.00
2019-02-27T09:19:46.279Z,28.80
2019-02-27T09:22:16.922Z,28.60
2019-02-27T09:24:47.309Z,28.30
2019-02-27T09:27:17.703Z,27.30
2019-02-27T09:29:49.366Z,25.70
2019-02-27T09:32:20.457Z,25.60
2019-02-27T09:34:50.936Z,25.20
2019-02-27T09:37:21.300Z,25.00
2019-02-27T09:39:51.691Z,24.30
2019-02-27T09:42:22.065Z,25.50
2019-02-27T09:44:52.625Z,25.10
2019-02-27T09:47:23.232Z,23.70
2019-02-27T09:49:55.092Z,23.20
2019-02-27T09:52:27.808Z,22.70
2019-02-27T09:54:57.563Z,24.20
2019-02-27T09:57:27.929Z,23.40
2019-02-27T09:59:58.314Z,22.20
2019-02-27T10:02:28.723Z,23.70
2019-02-27T10:05:03.073Z,23.90
2019-02-27T10:07:31.334Z,24.70
2019-02-27T10:10:02.906Z,23.90
2019-02-27T10:12:34.230Z,23.30
2019-02-27T10:15:05.575Z,24.60
2019-02-27T10:17:36.042Z,25.60
2019-02-27T10:20:08.942Z,25.50
2019-02-27T10:22:39.338Z,26.80
2019-02-27T10:25:09.927Z,27.80
2019-02-27T10:27:40.295Z,26.10
2019-02-27T10:30:16.647Z,26.90
2019-02-27T10:32:46.863Z,27.50
2019-02-27T10:35:17.622Z,27.10
2019-02-27T10:37:50.801Z,27.20
2019-02-27T10:40:26.340Z,27.10
2019-02-27T10:42:57.151Z,28.60
2019-02-27T10:45:27.573Z,27.20
2019-02-27T10:47:57.941Z,27.50
2019-02-27T10:50:28.340Z,28.00
2019-02-27T10:52:58.710Z,27.10
2019-02-27T10:55:29.100Z,27.50
2019-02-27T10:57:59.496Z,25.90
2019-02-27T11:00:35.927Z,25.90
2019-02-27T11:03:06.558Z,25.10
2019-02-27T11:05:39.058Z,24.40
2019-02-27T11:08:09.431Z,23.90
2019-02-27T11:10:39.825Z,22.40
2019-02-27T11:13:10.184Z,22.80
2019-02-27T11:15:41.535Z,22.00
2019-02-27T11:18:12.633Z,21.40
2019-02-27T11:20:43.025Z,22.00
2019-02-27T11:23:13.393Z,20.80
2019-02-27T11:25:43.787Z,19.90
2019-02-27T11:28:14.163Z,20.30
2019-02-27T11:30:46.334Z,20.80
2019-02-27T11:33:25.760Z,21.50
2019-02-27T11:35:48.796Z,20.90
2019-02-27T11:38:24.155Z,21.50
2019-02-27T11:40:51.324Z,20.60
2019-02-27T11:43:21.693Z,20.00
2019-02-27T11:45:52.092Z,19.50
2019-02-27T11:48:22.895Z,19.10
2019-02-27T11:50:53.828Z,18.90
2019-02-27T11:53:24.293Z,19.70
2019-02-27T11:55:54.692Z,19.30
2019-02-27T11:58:25.081Z,19.40
2019-02-27T12:00:55.462Z,20.40
2019-02-27T12:03:25.855Z,21.50
2019-02-27T12:05:56.228Z,23.30
2019-02-27T12:08:26.890Z,23.10
2019-02-27T12:10:58.343Z,23.90
2019-02-27T12:13:28.807Z,24.30
2019-02-27T12:15:59.173Z,24.90
2019-02-27T12:18:32.213Z,23.50
2019-02-27T12:21:01.629Z,24.40
2019-02-27T12:23:32.020Z,24.70
2019-02-27T12:26:02.617Z,25.30
2019-02-27T12:28:34.720Z,26.00
2019-02-27T12:31:05.265Z,25.30
2019-02-27T12:33:35.658Z,26.20
2019-02-27T12:36:06.025Z,26.40
2019-02-27T12:38:36.412Z,25.60
2019-02-27T12:41:09.578Z,25.50
2019-02-27T12:43:39.971Z,24.70
2019-02-27T12:46:10.348Z,25.40
2019-02-27T12:48:40.743Z,25.60
2019-02-27T12:51:11.110Z,25.70
2019-02-27T12:53:42.433Z,25.60
2019-02-27T12:56:12.947Z,24.30
2019-02-27T12:58:43.336Z,25.00
2019-02-27T13:01:16.155Z,24.20
2019-02-27T13:03:45.786Z,23.70
2019-02-27T13:06:16.169Z,23.70
2019-02-27T13:08:46.732Z,23.60
2019-02-27T13:11:17.097Z,24.00
2019-02-27T13:13:47.485Z,24.30
2019-02-27T13:16:17.857Z,24.70
2019-02-27T13:18:48.241Z,24.90
2019-02-27T13:21:20.582Z,23.80
2019-02-27T13:23:50.692Z,23.60
2019-02-27T13:26:21.081Z,24.60
2019-02-27T13:28:51.535Z,26.30
2019-02-27T13:31:21.929Z,26.80
2019-02-27T13:33:52.304Z,27.70
2019-02-27T13:36:22.729Z,28.90
2019-02-27T13:38:53.082Z,30.00
2019-02-27T13:41:23.886Z,30.20
2019-02-27T13:43:54.320Z,30.00
2019-02-27T13:46:24.735Z,32.30
2019-02-27T13:48:55.108Z,32.30
2019-02-27T13:51:25.492Z,32.50
2019-02-27T13:54:00.305Z,31.80
2019-02-27T13:56:28.187Z,32.00
2019-02-27T13:58:58.523Z,33.60
2019-02-27T14:01:29.358Z,35.20
2019-02-27T14:03:59.754Z,33.60
2019-02-27T14:06:30.144Z,33.00
2019-02-27T14:09:00.515Z,34.20
2019-02-27T14:11:32.524Z,34.10
2019-02-27T14:14:02.907Z,34.80
2019-02-27T14:16:34.738Z,34.40
2019-02-27T14:19:05.918Z,34.90
2019-02-27T14:21:36.350Z,32.20
2019-02-27T14:24:06.675Z,34.80
2019-02-27T14:26:38.351Z,35.30
2019-02-27T14:29:09.149Z,35.40
2019-02-27T14:31:40.112Z,35.80
2019-02-27T14:34:11.622Z,35.40
2019-02-27T14:36:42.513Z,33.50
2019-02-27T14:39:14.798Z,34.10
2019-02-27T14:41:47.893Z,34.70
2019-02-27T14:44:17.259Z,34.80
2019-02-27T14:46:47.648Z,35.40
2019-02-27T14:49:18.018Z,34.80
2019-02-27T14:51:48.410Z,33.20
2019-02-27T14:54:18.778Z,33.80
2019-02-27T14:56:50.247Z,32.40
2019-02-27T14:59:20.692Z,32.80
2019-02-27T15:01:51.086Z,31.80
2019-02-27T15:04:21.532Z,32.00
2019-02-27T15:06:51.928Z,30.90
2019-02-27T15:09:22.366Z,31.50
2019-02-27T15:11:52.760Z,31.30
2019-02-27T15:14:23.225Z,31.80
2019-02-27T15:16:53.606Z,34.30
2019-02-27T15:19:23.967Z,34.30
2019-02-27T15:21:54.431Z,37.40
2019-02-27T15:24:24.803Z,38.70
2019-02-27T15:26:55.201Z,40.20
2019-02-27T15:29:25.569Z,41.60
2019-02-27T15:31:56.059Z,41.50
2019-02-27T15:34:26.422Z,44.00
2019-02-27T15:36:56.889Z,42.70
2019-02-27T15:39:28.012Z,45.90
2019-02-27T15:41:58.524Z,45.20
2019-02-27T15:44:31.363Z,46.20
2019-02-27T15:47:00.964Z,46.60
2019-02-27T15:49:32.603Z,46.30
2019-02-27T15:52:06.422Z,45.80
2019-02-27T15:54:35.086Z,46.10
2019-02-27T15:57:05.479Z,48.20
2019-02-27T15:59:40.877Z,48.90
2019-02-27T16:02:08.351Z,50.00
2019-02-27T16:04:38.739Z,49.40
2019-02-27T16:07:11.159Z,49.70
2019-02-27T16:09:42.327Z,50.20
2019-02-27T16:12:12.753Z,50.70
2019-02-27T16:14:43.701Z,50.20
2019-02-27T16:17:14.141Z,51.90
2019-02-27T16:19:44.661Z,51.80
2019-02-27T16:22:15.779Z,52.70
2019-02-27T16:24:46.144Z,53.60
2019-02-27T16:27:16.572Z,53.80
2019-02-27T16:29:46.937Z,55.20
2019-02-27T16:32:17.444Z,56.90
2019-02-27T16:34:47.812Z,57.20
2019-02-27T16:37:22.854Z,56.60
2019-02-27T16:39:51.534Z,57.20
2019-02-27T16:42:22.027Z,57.70
2019-02-27T16:45:19.719Z,57.80
2019-02-27T16:47:50.111Z,58.80
2019-02-27T16:50:26.370Z,60.00
2019-02-27T16:52:56.735Z,61.30
2019-02-27T16:55:28.374Z,62.60
2019-02-27T16:58:18.179Z,64.40
2019-02-27T17:00:48.630Z,65.10
2019-02-27T17:03:19.038Z,66.40
2019-02-27T17:05:49.832Z,67.60
2019-02-27T17:08:20.358Z,69.00
2019-02-27T17:10:51.943Z,69.80
2019-02-27T17:13:22.903Z,71.10
2019-02-27T17:15:53.255Z,72.60
2019-02-27T17:18:27.905Z,74.30
2019-02-27T17:20:55.735Z,75.00
2019-02-27T17:23:26.158Z,76.50
2019-02-27T17:25:56.611Z,78.40
2019-02-27T17:28:28.129Z,79.10
2019-02-27T17:31:01.789Z,79.50
2019-02-27T17:33:31.701Z,79.70
2019-02-27T17:36:02.059Z,79.60
2019-02-27T17:38:32.463Z,79.40
2019-02-27T17:41:02.807Z,79.60
2019-02-27T17:43:33.188Z,81.10
2019-02-27T17:46:04.764Z,82.10
2019-02-27T17:48:35.182Z,82.60
2019-02-27T17:51:06.462Z,82.40
2019-02-27T17:53:37.102Z,82.40
2019-02-27T17:56:07.434Z,84.90
2019-02-27T17:58:37.821Z,85.80
2019-02-27T18:01:09.825Z,86.50
2019-02-27T18:03:41.773Z,87.40
2019-02-27T18:06:12.252Z,87.70
2019-02-27T18:08:42.826Z,88.80
2019-02-27T18:11:15.630Z,90.00
2019-02-27T18:13:47.670Z,90.70
2019-02-27T18:16:17.894Z,91.00
2019-02-27T18:18:48.670Z,90.80
2019-02-27T18:21:19.201Z,91.30
2019-02-27T18:23:49.658Z,92.00
2019-02-27T18:26:20.083Z,92.40
2019-02-27T18:28:50.881Z,92.40
2019-02-27T18:31:21.320Z,93.00
2019-02-27T18:33:51.776Z,93.20
2019-02-27T18:36:22.206Z,93.70
2019-02-27T18:38:52.733Z,93.70
2019-02-27T18:41:23.115Z,93.80
2019-02-27T18:43:53.866Z,94.00
2019-02-27T18:46:25.546Z,94.80
2019-02-27T18:48:56.043Z,95.00
2019-02-27T18:51:26.567Z,94.50
2019-02-27T18:53:58.012Z,93.90
2019-02-27T18:56:28.552Z,93.80
2019-02-27T18:58:59.156Z,93.50
2019-02-27T19:01:29.586Z,93.20
2019-02-27T19:04:01.240Z,93.10
2019-02-27T19:06:32.951Z,93.30
2019-02-27T19:09:04.033Z,92.90
2019-02-27T19:11:36.129Z,93.30
2019-02-27T19:14:06.719Z,92.20
2019-02-27T19:16:37.102Z,92.90
2019-02-27T19:19:07.627Z,93.40
2019-02-27T19:21:38.015Z,93.40
2019-02-27T19:24:08.554Z,93.90
2019-02-27T19:26:41.740Z,94.40
2019-02-27T19:29:11.346Z,94.60
2019-02-27T19:31:41.801Z,94.40
2019-02-27T19:34:12.227Z,94.40
2019-02-27T19:36:42.612Z,94.90
2019-02-27T19:39:13.041Z,95.10
2019-02-27T19:41:43.572Z,95.40
2019-02-27T19:44:14.144Z,95.60
2019-02-27T19:46:47.420Z,95.00
2019-02-27T19:49:16.583Z,95.90
2019-02-27T19:51:47.043Z,95.50
2019-02-27T19:54:18.612Z,95.60
2019-02-27T19:56:49.124Z,95.50
2019-02-27T19:59:19.478Z,96.10
2019-02-27T20:01:50.319Z,96.80
2019-02-27T20:04:20.670Z,96.90
2019-02-27T20:06:51.419Z,97.70
2019-02-27T20:09:22.183Z,96.80
2019-02-27T20:11:52.569Z,96.50
2019-02-27T20:14:22.998Z,96.60
2019-02-27T20:16:55.224Z,96.50
2019-02-27T20:19:46.139Z,96.30
2019-02-27T20:22:18.998Z,96.10
2019-02-27T20:24:48.980Z,96.20
2019-02-27T20:27:19.543Z,96.30
2019-02-27T20:29:49.908Z,96.40
2019-02-27T20:32:20.305Z,96.40
2019-02-27T20:34:51.623Z,96.30
2019-02-27T20:37:22.079Z,96.40
2019-02-27T20:39:58.286Z,96.70
2019-02-27T20:42:24.543Z,97.20
2019-02-27T20:44:54.894Z,97.30
2019-02-27T20:47:25.281Z,97.50
2019-02-27T20:49:55.639Z,97.70
2019-02-27T20:52:27.014Z,97.90
2019-02-27T20:54:58.836Z,97.80
2019-02-27T20:57:29.448Z,97.90
2019-02-27T21:00:02.144Z,97.70
2019-02-27T21:02:32.666Z,97.70
2019-02-27T21:05:03.018Z,98.00
2019-02-27T21:07:35.358Z,97.90
2019-02-27T21:10:10.277Z,97.80
2019-02-27T21:12:42.589Z,97.80
2019-02-27T21:15:15.135Z,97.70
2019-02-27T21:17:45.520Z,97.40
2019-02-27T21:20:16.663Z,97.30
2019-02-27T21:22:47.145Z,97.40
2019-02-27T21:25:17.506Z,98.00
2019-02-27T21:27:48.133Z,98.40
2019-02-27T21:30:23.329Z,98.60
2019-02-27T21:32:53.710Z,98.70
2019-02-27T21:35:28.838Z,98.60
2019-02-27T21:37:56.461Z,98.90
2019-02-27T21:40:26.858Z,99.00
2019-02-27T21:42:57.210Z,99.20
2019-02-27T21:45:27.563Z,99.20
2019-02-27T21:47:57.993Z,99.20
2019-02-27T21:50:28.346Z,99.20
2019-02-27T21:52:58.797Z,99.60
2019-02-27T21:55:29.165Z,99.60
2019-02-27T21:57:59.713Z,99.70
2019-02-27T22:00:30.447Z,99.50
2019-02-27T22:03:03.634Z,99.50
2019-02-27T22:05:42.289Z,99.70
2019-02-27T22:08:06.099Z,99.70
2019-02-27T22:10:36.536Z,99.90
2019-02-27T22:13:10.587Z,99.90
2019-02-27T22:15:38.975Z,99.90
2019-02-27T22:18:11.803Z,99.90
2019-02-27T22:20:41.406Z,99.90
2019-02-27T22:23:12.738Z,99.70
2019-02-27T22:25:45.057Z,99.70
2019-02-27T22:28:17.340Z,99.50
2019-02-27T22:30:47.562Z,99.70
2019-02-27T22:33:21.949Z,99.90
2019-02-27T22:35:49.992Z,99.00
2019-02-27T22:38:25.684Z,98.90
2019-02-27T22:40:52.429Z,99.70
2019-02-27T22:43:22.874Z,99.60
2019-02-27T22:45:53.250Z,99.90
2019-02-27T22:48:27.700Z,99.90
2019-02-27T22:50:55.675Z,99.90
2019-02-27T22:53:26.243Z,99.90
2019-02-27T22:55:58.107Z,99.90
2019-02-27T22:58:28.475Z,99.90
2019-02-27T23:01:10.240Z,99.90
2019-02-27T23:03:50.889Z,99.90
2019-02-27T23:06:21.502Z,99.90
2019-02-27T23:08:54.376Z,99.90
2019-02-27T23:11:24.448Z,99.90
2019-02-27T23:13:54.932Z,99.90
2019-02-27T23:16:29.810Z,99.90
2019-02-27T23:19:01.121Z,99.90
2019-02-27T23:21:31.476Z,99.90
2019-02-27T23:24:07.198Z,99.90
2019-02-27T23:26:36.821Z,99.90
2019-02-27T23:29:07.196Z,99.90
2019-02-27T23:31:37.557Z,99.90
2019-02-27T23:34:08.614Z,99.90
2019-02-27T23:36:39.080Z,99.90
2019-02-27T23:39:10.195Z,99.90
2019-02-27T23:41:40.549Z,99.90
2019-02-27T23:44:12.200Z,99.90
2019-02-27T23:46:49.768Z,99.90
2019-02-27T23:49:14.828Z,99.90
2019-02-27T23:51:47.700Z,99.90
2019-02-27T23:54:17.315Z,99.90
2019-02-27T23:56:47.733Z,99.90
2019-02-27T23:59:18.109Z,99.90
